Flight Track Log - Related Links

Times and Time Zones

All times are in EDT time to prevent confusion due to time zone crossing. See the N384RV flight status page for this flight to view local times or setup timezone preferences in your user account.

Time Position Orientation Groundspeed Altitude Reporting Facility
EDT Latitude Longitude Course Direction KTS MPH feet Rate Location/Type
Wed 07:04:32 PM 39.1667 -76.7333 284° West 197 227 3,000  Level Potomac TRACON
Wed 07:05:32 PM 39.1833 -76.8167 288° West 242 278 6,900 3,842 Climbing Potomac TRACON
Wed 07:06:26 PM 39.2000 -76.8833 277° West 261 300 10,300 3,228 Climbing Potomac TRACON
Wed 07:07:57 PM 39.2133 -77.0247 270° West 279 321 14,700 2,658 Climbing Washington Center
Wed 07:08:55 PM 39.2139 -77.1400 307° West 300 345 16,900 1,119 Climbing Washington Center
Wed 07:09:55 PM 39.2731 -77.2431 294° West 321 369 16,900 198 Level Washington Center
Wed 07:10:56 PM 39.3131 -77.3594 301° West 341 392 17,300 1,438 Climbing Washington Center
Wed 07:11:56 PM 39.3656 -77.4733 299° West 352 405 19,800 2,500 Climbing Washington Center
Wed 07:12:56 PM 39.4178 -77.5931 300° West 369 425 22,300 2,380 Climbing Washington Center
Wed 07:13:57 PM 39.4719 -77.7156 301° West 382 440 24,600 2,118 Climbing Washington Center
Wed 07:14:55 PM 39.5281 -77.8381 292° West 389 448 26,500 1,793 Climbing Washington Center
Wed 07:16:51 PM 39.6128 -78.1067 290° West 394 453 29,800 1,602 Climbing Cleveland Center
Wed 07:17:51 PM 39.6533 -78.2508 292° West 418 481 31,200 1,400 Climbing Cleveland Center
Wed 07:18:51 PM 39.6981 -78.3975 290° West 430 495 32,600 1,350 Climbing Cleveland Center
Wed 07:19:51 PM 39.7406 -78.5475 290° West 440 506 33,900 1,100 Climbing Cleveland Center
Wed 07:20:51 PM 39.7869 -78.7136 291° West 440 506 34,800 1,250 Climbing Cleveland Center
Wed 07:21:51 PM 39.8247 -78.8450 291° West 440 506 36,400 1,450 Climbing Cleveland Center
Wed 07:22:51 PM 39.8664 -78.9900 273° West 440 506 37,700 1,100 Climbing Cleveland Center
Wed 07:23:51 PM 39.8725 -79.1414 272° West 429 494 38,600 750 Climbing Cleveland Center
Wed 07:24:51 PM 39.8764 -79.2928 272° West 429 494 39,200 900 Climbing Cleveland Center
Wed 07:25:51 PM 39.8800 -79.4414 273° West 418 481 40,400 900 Climbing Cleveland Center
Wed 07:26:51 PM 39.8856 -79.5847 272° West 412 474 41,000 550 Climbing Cleveland Center
Wed 07:27:51 PM 39.8889 -79.7336 272° West 412 474 41,500 350 Climbing Cleveland Center
Wed 07:28:51 PM 39.8919 -79.8769 272° West 407 468 41,700 250 Climbing Cleveland Center
Wed 07:29:51 PM 39.8950 -80.0256 271° West 402 463 42,000 300 Climbing Cleveland Center
Wed 07:30:51 PM 39.8975 -80.1692 272° West 402 463 42,300 250 Climbing Cleveland Center
Wed 07:31:51 PM 39.9022 -80.3178 271° West 402 463 42,500 200 Climbing Cleveland Center
Wed 07:32:51 PM 39.9044 -80.4775 271° West 402 463 42,700 200 Climbing Cleveland Center
Wed 07:33:51 PM 39.9067 -80.6264 271° West 402 463 42,900 150 Climbing Cleveland Center
Wed 07:34:51 PM 39.9086 -80.7725 271° West 402 463 43,000 37 Climbing Cleveland Center
Wed 07:36:32 PM 39.9128 -80.9939 270° West 397 457 43,000  Level Indianapolis Center
Wed 07:37:32 PM 39.9136 -81.1400 272° West 397 457 43,000  Level Indianapolis Center
Wed 07:38:32 PM 39.9167 -81.2833 270° West 402 463 43,000  Level Indianapolis Center
Wed 07:39:32 PM 39.9156 -81.4486 272° West 402 463 43,000  Level Indianapolis Center
Wed 07:40:32 PM 39.9200 -81.5892 269° West 402 463 43,000  Level Indianapolis Center
Wed 07:41:32 PM 39.9181 -81.7353 271° West 402 463 43,000  Level Indianapolis Center
Wed 07:42:32 PM 39.9203 -81.8814 270° West 402 463 43,000  Level Indianapolis Center
Wed 07:43:32 PM 39.9200 -82.0142 271° West 402 463 43,000  Level Indianapolis Center
Wed 07:44:32 PM 39.9219 -82.1603 271° West 402 463 43,000  Level Indianapolis Center
Wed 07:45:32 PM 39.9233 -82.3036 270° West 402 463 43,000  Level Indianapolis Center
Wed 07:46:32 PM 39.9228 -82.4472 271° West 402 463 43,000  Level Indianapolis Center
Wed 07:47:32 PM 39.9242 -82.5933 269° West 402 463 43,000  Level Indianapolis Center
Wed 07:48:32 PM 39.9231 -82.7394 269° West 402 463 43,000  Level Indianapolis Center
Wed 07:49:32 PM 39.9219 -82.8831 270° West 402 463 43,000  Level Indianapolis Center
Wed 07:50:32 PM 39.9228 -83.0319 269° West 402 463 43,000  Level Indianapolis Center
Wed 07:51:32 PM 39.9211 -83.1917 269° West 402 463 43,000  Level Indianapolis Center
Wed 07:52:32 PM 39.9194 -83.3406 271° West 402 463 43,000  Level Indianapolis Center
Wed 07:53:32 PM 39.9217 -83.4678 270° West 409 471 43,000  Level Indianapolis Center
Wed 07:54:32 PM 39.9217 -83.6167 267° West 409 471 43,000  Level Indianapolis Center
Wed 07:55:32 PM 39.9153 -83.7681 269° West 419 482 43,000  Level Indianapolis Center
Wed 07:56:32 PM 39.9128 -83.9117 270° West 407 468 43,000  Level Indianapolis Center
Wed 07:57:32 PM 39.9122 -84.0606 268° West 407 468 43,000  Level Indianapolis Center
Wed 07:58:32 PM 39.9075 -84.2200 269° West 402 463 43,000  Level Indianapolis Center
Wed 07:59:32 PM 39.9064 -84.3636 268° West 402 463 43,000  Level Indianapolis Center
Wed 08:00:32 PM 39.9033 -84.5097 269° West 402 463 43,000  Level Indianapolis Center
Wed 08:01:32 PM 39.9019 -84.6558 268° West 402 463 43,000  Level Indianapolis Center
Wed 08:02:32 PM 39.8986 -84.7992 269° West 402 463 43,000  Level Indianapolis Center
Wed 08:03:32 PM 39.8972 -84.9289 268° West 402 463 43,000  Level Indianapolis Center
Wed 08:04:32 PM 39.8933 -85.0778 268° West 402 463 43,000  Level Indianapolis Center
Wed 08:05:32 PM 39.8889 -85.2372 268° West 402 463 43,000  Level Indianapolis Center
Wed 08:06:32 PM 39.8847 -85.3806 267° West 408 470 43,000  Level Indianapolis Center
Wed 08:07:32 PM 39.8781 -85.5319 268° West 402 463 43,000  Level Indianapolis Center
Wed 08:08:32 PM 39.8736 -85.6750 268° West 402 463 43,000  Level Indianapolis Center
Wed 08:09:32 PM 39.8689 -85.8211 267° West 402 463 43,000  Level Indianapolis Center
Wed 08:10:32 PM 39.8639 -85.9642 268° West 402 463 43,000  Level Indianapolis Center
Wed 08:11:32 PM 39.8608 -86.1103 266° West 402 463 43,000  Level Indianapolis Center
Wed 08:12:32 PM 39.8539 -86.2317 267° West 408 470 43,000  Level Indianapolis Center
Wed 08:13:32 PM 39.8456 -86.4097 266° West 413 475 43,000  Level Indianapolis Center
Wed 08:14:32 PM 39.8378 -86.5608 266° West 419 482 43,000  Level Indianapolis Center
Wed 08:15:32 PM 39.8300 -86.7011 267° West 404 465 43,000  Level Indianapolis Center
Wed 08:16:32 PM 39.8239 -86.8497 267° West 404 465 43,000  Level Indianapolis Center
Wed 08:17:32 PM 39.8178 -86.9900 266° West 404 465 43,000  Level Indianapolis Center
Wed 08:18:32 PM 39.8092 -87.1381 267° West 404 465 43,000  Level Indianapolis Center
Wed 08:19:32 PM 39.8028 -87.2811 267° West 398 458 43,000  Level Indianapolis Center
Wed 08:21:30 PM 39.7917 -87.5506 267° West 412 474 43,000  Level Kansas City Center
Wed 08:22:30 PM 39.7856 -87.7000 266° West 412 474 43,000  Level Kansas City Center
Wed 08:23:30 PM 39.7772 -87.8467 265° West 412 474 43,000  Level Kansas City Center
Wed 08:24:30 PM 39.7667 -87.9961 267° West 407 468 43,000  Level Kansas City Center
Wed 08:25:30 PM 39.7600 -88.1425 264° West 412 474 43,000  Level Kansas City Center
Wed 08:26:30 PM 39.7486 -88.2839 267° West 405 466 43,000  Level Kansas City Center
Wed 08:27:30 PM 39.7417 -88.4331 265° West 410 472 43,000  Level Kansas City Center
Wed 08:28:30 PM 39.7325 -88.5797 265° West 416 479 43,000  Level Kansas City Center
Wed 08:29:30 PM 39.7231 -88.7289 265° West 416 479 43,000  Level Kansas City Center
Wed 08:30:30 PM 39.7136 -88.8808 266° West 421 484 43,000  Level Kansas City Center
Wed 08:31:30 PM 39.7042 -89.0353 264° West 428 493 43,000  Level Kansas City Center
Wed 08:32:30 PM 39.6919 -89.1819 264° West 423 487 43,000  Level Kansas City Center
Wed 08:33:30 PM 39.6797 -89.3339 265° West 423 487 43,000  Level Kansas City Center
Wed 08:34:30 PM 39.6697 -89.4856 266° West 428 493 43,000  Level Kansas City Center
Wed 08:35:30 PM 39.6611 -89.6344 265° West 428 493 43,000  Level Kansas City Center
Wed 08:36:30 PM 39.6506 -89.7836 266° West 428 493 43,000  Level Kansas City Center
Wed 08:37:30 PM 39.6406 -89.9567 263° West 428 493 43,000  Level Kansas City Center
Wed 08:38:30 PM 39.6272 -90.1058 265° West 428 493 43,000  Level Kansas City Center
Wed 08:39:30 PM 39.6161 -90.2572 265° West 423 487 43,000  Level Kansas City Center
Wed 08:40:30 PM 39.6067 -90.4033 265° West 423 487 43,000  Level Kansas City Center
Wed 08:41:30 PM 39.5967 -90.5386 263° West 423 487 43,000  Level Kansas City Center
Wed 08:42:30 PM 39.5808 -90.6983 264° West 423 487 43,000  Level Kansas City Center
Wed 08:43:30 PM 39.5689 -90.8444 264° West 423 487 43,000  Level Kansas City Center
Wed 08:44:30 PM 39.5564 -90.9906 265° West 417 480 43,000  Level Kansas City Center
Wed 08:45:30 PM 39.5461 -91.1389 263° West 422 486 43,000  Level Kansas City Center
Wed 08:46:30 PM 39.5314 -91.2850 265° West 415 478 43,000  Level Kansas City Center
Wed 08:47:30 PM 39.5208 -91.4333 264° West 415 478 43,000  Level Kansas City Center
Wed 08:48:30 PM 39.5097 -91.5792 262° West 420 483 43,000  Level Kansas City Center
Wed 08:49:30 PM 39.4925 -91.7306 264° West 420 483 43,000  Level Kansas City Center
Wed 08:50:30 PM 39.4811 -91.8761 264° West 420 483 43,000  Level Kansas City Center
Wed 08:51:30 PM 39.4697 -92.0244 263° West 420 483 43,000  Level Kansas City Center
Wed 08:52:30 PM 39.4542 -92.1783 264° West 425 489 43,000  Level Kansas City Center
Wed 08:53:30 PM 39.4422 -92.3211 262° West 425 489 43,000  Level Kansas City Center
Wed 08:54:30 PM 39.4261 -92.4692 264° West 425 489 43,000  Level Kansas City Center
Wed 08:55:30 PM 39.4139 -92.6175 263° West 425 489 43,000  Level Kansas City Center
Wed 08:56:30 PM 39.3994 -92.7656 263° West 425 489 43,000  Level Kansas City Center
Wed 08:57:30 PM 39.3850 -92.9108 263° West 420 483 43,000  Level Kansas City Center
Wed 08:58:30 PM 39.3719 -93.0428 264° West 425 489 43,000  Level Kansas City Center
Wed 08:59:30 PM 39.3592 -93.1933 261° West 425 489 43,000  Level Kansas City Center
Wed 09:00:30 PM 39.3419 -93.3331 262° West 420 483 43,000  Level Kansas City Center
Wed 09:01:30 PM 39.3264 -93.4703 262° West 410 472 43,000  Level Kansas City Center
Wed 09:02:30 PM 39.3108 -93.6181 263° West 410 472 43,000  Level Kansas City Center
Wed 09:03:30 PM 39.2972 -93.7631 261° West 415 478 43,000  Level Kansas City Center
Wed 09:04:30 PM 39.2775 -93.9242 263° West 415 478 43,000  Level Kansas City Center
Wed 09:05:30 PM 39.2633 -94.0717 261° West 409 471 43,000  Level Kansas City Center
Wed 09:06:30 PM 39.2472 -94.2031 262° West 409 471 43,000  Level Kansas City Center
Wed 09:07:30 PM 39.2308 -94.3506 262° West 409 471 43,000  Level Kansas City Center
Wed 09:08:30 PM 39.2142 -94.5114 262° West 414 476 43,000  Level Kansas City Center
Wed 09:09:30 PM 39.1975 -94.6558 261° West 414 476 43,000  Level Kansas City Center
Wed 09:10:30 PM 39.1806 -94.7897 261° West 414 476 43,000  Level Kansas City Center
Wed 09:11:30 PM 39.1633 -94.9369 261° West 419 482 43,000  Level Kansas City Center
Wed 09:12:30 PM 39.1439 -95.1000 263° West 419 482 43,000  Level Kansas City Center
Wed 09:13:30 PM 39.1286 -95.2525 261° West 441 507 43,000  Level Kansas City Center
Wed 09:14:30 PM 39.1108 -95.3994 260° West 425 489 43,000  Level Kansas City Center
Wed 09:15:30 PM 39.0908 -95.5517 261° West 425 489 43,000  Level Kansas City Center
Wed 09:16:30 PM 39.0750 -95.6853 261° West 425 489 43,000  Level Kansas City Center
Wed 09:17:30 PM 39.0567 -95.8344 263° West 425 489 43,000  Level Kansas City Center
Wed 09:18:30 PM 39.0403 -95.9972 259° West 430 495 43,000  Level Kansas City Center
Wed 09:19:30 PM 39.0197 -96.1383 261° West 425 489 43,000  Level Kansas City Center
Wed 09:20:30 PM 39.0008 -96.2850 259° West 419 482 43,000  Level Kansas City Center
Wed 09:21:30 PM 38.9822 -96.4128 261° West 419 482 43,000  Level Kansas City Center
Wed 09:22:30 PM 38.9631 -96.5617 260° West 419 482 43,000 150 Level Kansas City Center
Wed 09:23:30 PM 38.9417 -96.7133 260° West 424 488 43,300 350 Climbing Kansas City Center
Wed 09:24:30 PM 38.9222 -96.8594 261° West 435 501 43,700 450 Climbing Kansas City Center
Wed 09:25:30 PM 38.9047 -97.0056 261° West 429 494 44,200 450 Climbing Kansas City Center
Wed 09:26:30 PM 38.8847 -97.1622 260° West 419 482 44,600 300 Climbing Kansas City Center
Wed 09:27:30 PM 38.8647 -97.3056 260° West 414 476 44,800 200 Climbing Kansas City Center
Wed 09:28:30 PM 38.8444 -97.4514 260° West 408 470 45,000 100 Climbing Kansas City Center
Wed 09:29:30 PM 38.8267 -97.5786 259° West 413 475 45,000  Level Kansas City Center
Wed 09:30:30 PM 38.8064 -97.7161 260° West 408 470 45,000  Level Kansas City Center
Wed 09:31:30 PM 38.7853 -97.8750 259° West 408 470 45,000  Level Kansas City Center
Wed 09:32:30 PM 38.7644 -98.0181 259° West 408 470 45,000  Level Kansas City Center
Wed 09:33:30 PM 38.7436 -98.1581 259° West 408 470 45,000  Level Kansas City Center
Wed 09:34:30 PM 38.7225 -98.3033 259° West 408 470 45,000  Level Kansas City Center
Wed 09:35:30 PM 38.7014 -98.4433 259° West 413 475 45,000  Level Kansas City Center
Wed 09:36:30 PM 38.6797 -98.5858 259° West 413 475 45,000  Level Kansas City Center
Wed 09:37:30 PM 38.6581 -98.7308 259° West 413 475 45,000  Level Kansas City Center
Wed 09:38:30 PM 38.6361 -98.8758 259° West 413 475 45,000  Level Kansas City Center
Wed 09:39:30 PM 38.6142 -99.0206 259° West 413 475 45,000  Level Kansas City Center
Wed 09:40:30 PM 38.5922 -99.1603 260° West 413 475 45,000  Level Kansas City Center
Wed 09:41:30 PM 38.5719 -99.3022 259° West 413 475 45,000  Level Kansas City Center
Wed 09:42:30 PM 38.5494 -99.4442 257° West 413 475 45,000  Level Kansas City Center
Wed 09:43:30 PM 38.5275 -99.5700 257° West 400 460 45,000  Level Kansas City Center
Wed 09:44:30 PM 38.5000 -99.7247 259° West 407 468 45,000  Level Kansas City Center
Wed 09:45:30 PM 38.4789 -99.8692 258° West 415 478 45,000  Level Kansas City Center
Wed 09:47:19 PM 38.4389 -100.1136 258° West 385 443 45,000  Level Denver Center
Wed 09:48:19 PM 38.4122 -100.2697 259° West 402 463 45,000  Level Denver Center
Wed 09:49:19 PM 38.3906 -100.4122 258° West 409 471 45,000  Level Denver Center
Wed 09:50:19 PM 38.3700 -100.5383 258° West 415 478 45,000  Level Denver Center
Wed 09:51:19 PM 38.3461 -100.6808 257° West 415 478 45,000  Level Denver Center
Wed 09:52:19 PM 38.3183 -100.8367 259° West 415 478 45,000  Level Denver Center
Wed 09:53:19 PM 38.2961 -100.9786 256° West 415 478 45,000  Level Denver Center
Wed 09:54:19 PM 38.2711 -101.1075 258° West 415 478 45,000  Level Denver Center
Wed 09:55:19 PM 38.2447 -101.2628 258° West 420 483 45,000  Level Denver Center
Wed 09:56:19 PM 38.2200 -101.4047 258° West 420 483 45,000  Level Denver Center
Wed 09:57:19 PM 38.1986 -101.5331 256° West 420 483 45,000  Level Denver Center
Wed 09:58:19 PM 38.1711 -101.6750 258° West 420 483 45,000  Level Denver Center
Wed 09:59:19 PM 38.1444 -101.8325 257° West 420 483 45,000  Level Denver Center
Wed 10:00:19 PM 38.1186 -101.9714 258° West 420 483 45,000  Level Denver Center
Wed 10:01:19 PM 38.0964 -102.0994 257° West 414 476 45,000  Level Denver Center
Wed 10:02:19 PM 38.0689 -102.2517 256° West 414 476 45,000  Level Denver Center
Wed 10:03:19 PM 38.0406 -102.3931 258° West 419 482 45,000  Level Denver Center
Wed 10:04:19 PM 38.0164 -102.5314 256° West 419 482 45,000  Level Denver Center
Wed 10:05:19 PM 37.9878 -102.6753 257° West 419 482 45,000  Level Denver Center
Wed 10:06:19 PM 37.9631 -102.8133 257° West 419 482 45,000  Level Denver Center
Wed 10:07:19 PM 37.9364 -102.9544 257° West 419 482 45,000  Level Denver Center
Wed 10:08:19 PM 37.9131 -103.0817 256° West 419 482 45,000  Level Denver Center
Wed 10:09:19 PM 37.8819 -103.2358 256° West 419 482 45,000  Level Denver Center
Wed 10:10:19 PM 37.8547 -103.3736 256° West 419 482 45,000  Level Denver Center
Wed 10:11:19 PM 37.8272 -103.5169 257° West 419 482 45,000 50 Level Denver Center
Wed 10:12:19 PM 37.8033 -103.6439 256° West 419 482 45,100  Climbing Denver Center
Wed 10:13:19 PM 37.7736 -103.7947 256° West 419 482 45,000 -50 Descending Denver Center
Wed 10:14:19 PM 37.7456 -103.9375 256° West 419 482 45,000 50 Level Denver Center
Wed 10:15:19 PM 37.7211 -104.0617 255° West 419 482 45,100 50 Climbing Denver Center
Wed 10:16:19 PM 37.6889 -104.2175 254° West 419 482 45,100 -50 Level Denver Center
Wed 10:17:19 PM 37.6581 -104.3575 256° West 419 482 45,000 -50 Descending Denver Center
Wed 10:18:19 PM 37.6333 -104.4839 255° West 419 482 45,000 50 Level Denver Center
Wed 10:19:19 PM 37.6006 -104.6394 255° West 425 489 45,100 -100 Climbing Denver Center
Wed 10:20:19 PM 37.5733 -104.7711 255° West 415 478 44,800  Descending Denver Center
Wed 10:21:19 PM 37.5442 -104.9053 256° West 400 460 45,100 100 Climbing Denver Center
Wed 10:22:19 PM 37.5206 -105.0208 256° West 395 455 45,000 -50 Descending Denver Center
Wed 10:23:19 PM 37.4931 -105.1547 255° West 395 455 45,000  Level Denver Center
Wed 10:24:19 PM 37.4653 -105.2861 255° West 400 460 45,000  Level Denver Center
Wed 10:25:19 PM 37.4314 -105.4408 256° West 405 466 45,000  Level Denver Center
Wed 10:26:19 PM 37.4033 -105.5847 254° West 419 482 45,000  Level Denver Center
Wed 10:27:19 PM 37.3750 -105.7106 254° West 419 482 45,000  Level Denver Center
Wed 10:28:19 PM 37.3406 -105.8650 251° West 419 482 45,000  Level Denver Center
Wed 10:29:19 PM 37.3036 -106.0033 253° West 419 482 45,000  Level Denver Center
Wed 10:30:19 PM 37.2708 -106.1417 251° West 424 488 45,000  Level Denver Center
Wed 10:31:19 PM 37.2378 -106.2619 253° West 418 481 45,000  Level Denver Center
Wed 10:32:19 PM 37.2025 -106.4103 251° West 418 481 45,000  Level Denver Center
Wed 10:33:19 PM 37.1669 -106.5433 252° West 419 482 45,000  Level Denver Center
Wed 10:34:19 PM 37.1314 -106.6811 252° West 414 476 45,000  Level Denver Center
Wed 10:35:19 PM 37.1000 -106.8008 252° West 414 476 45,000  Level Denver Center
Wed 10:36:19 PM 37.0597 -106.9539 251° West 414 476 45,000  Level Denver Center
Wed 10:37:19 PM 37.0217 -107.0914 252° West 421 484 45,000  Level Denver Center
Wed 10:38:19 PM 36.9853 -107.2314 252° West 421 484 45,000  Level Denver Center
Wed 10:39:19 PM 36.9531 -107.3583 251° West 421 484 45,000  Level Denver Center
Wed 10:40:19 PM 36.9122 -107.5083 252° West 421 484 45,000  Level Denver Center
Wed 10:41:19 PM 36.8756 -107.6453 251° West 421 484 45,000  Level Denver Center
Wed 10:42:19 PM 36.8386 -107.7819 251° West 421 484 45,000  Level Denver Center
Wed 10:43:19 PM 36.8036 -107.9083 251° West 421 484 45,000  Level Denver Center
Wed 10:44:19 PM 36.7619 -108.0603 255° West 421 484 45,000  Level Denver Center
Wed 10:45:19 PM 36.7328 -108.1994 257° West 421 484 45,000  Level Denver Center
Wed 10:46:19 PM 36.7100 -108.3256 257° West 414 476 45,000  Level Denver Center
Wed 10:47:19 PM 36.6847 -108.4672 256° West 414 476 45,000  Level Denver Center
Wed 10:48:19 PM 36.6547 -108.6217 258° West 419 482 45,000  Level Denver Center
Wed 10:49:19 PM 36.6314 -108.7606 256° West 419 482 45,000  Level Denver Center
Wed 10:50:19 PM 36.6056 -108.8889 255° West 425 489 45,000  Level Denver Center
Wed 10:51:19 PM 36.5731 -109.0428 257° West 425 489 45,000  Level Denver Center
Wed 10:52:19 PM 36.5469 -109.1864 256° West 425 489 45,000  Level Denver Center
Wed 10:53:19 PM 36.5231 -109.3094 257° West 419 482 45,000  Level Denver Center
Wed 10:54:19 PM 36.4964 -109.4503 256° West 419 482 45,000  Level Denver Center
Wed 10:55:19 PM 36.4653 -109.6039 256° West 419 482 45,000  Level Denver Center
Wed 10:56:19 PM 36.4361 -109.7444 256° West 419 482 45,000  Level Denver Center
Wed 10:57:19 PM 36.4117 -109.8672 255° West 414 476 45,000  Level Denver Center
Wed 10:58:19 PM 36.3803 -110.0150 257° West 414 476 45,000  Level Denver Center
Wed 10:59:19 PM 36.3600 -110.1275 254° West 414 476 45,000  Level Denver Center
Wed 11:00:19 PM 36.3261 -110.2700 257° West 402 463 45,000  Level Denver Center
Wed 11:01:19 PM 36.3006 -110.4050 256° West 402 463 45,000  Level Denver Center
Wed 11:02:19 PM 36.2728 -110.5425 255° West 412 474 45,000  Level Denver Center
Wed 11:03:19 PM 36.2428 -110.6797 256° West 412 474 45,000  Level Denver Center
Wed 11:04:19 PM 36.2122 -110.8297 255° West 412 474 45,000  Level Denver Center
Wed 11:05:19 PM 36.1817 -110.9692 257° West 412 474 45,000  Level Denver Center
Wed 11:06:55 PM 36.1394 -111.1892 256° West 414 476 45,000  Level Los Angeles Center
Wed 11:07:55 PM 36.1117 -111.3269 255° West 419 482 45,000  Level Los Angeles Center
Wed 11:08:56 PM 36.0814 -111.4650 256° West 419 482 45,000  Level Los Angeles Center
Wed 11:09:55 PM 36.0550 -111.5925 256° West 419 482 45,000  Level Los Angeles Center
Wed 11:10:55 PM 36.0267 -111.7328 254° West 419 482 45,000  Level Los Angeles Center
Wed 11:11:56 PM 35.9961 -111.8678 255° West 419 482 45,000  Level Los Angeles Center
Wed 11:12:55 PM 35.9656 -112.0106 255° West 424 488 45,000  Level Los Angeles Center
Wed 11:13:56 PM 35.9364 -112.1456 255° West 424 488 45,000  Level Los Angeles Center
Wed 11:14:55 PM 35.9056 -112.2856 256° West 417 480 45,000  Level Los Angeles Center
Wed 11:15:55 PM 35.8764 -112.4253 255° West 417 480 45,000  Level Los Angeles Center
Wed 11:16:55 PM 35.8472 -112.5597 254° West 417 480 45,000  Level Los Angeles Center
Wed 11:17:55 PM 35.8156 -112.6994 254° West 422 486 45,000  Level Los Angeles Center
Wed 11:18:55 PM 35.7839 -112.8392 255° West 422 486 45,000  Level Los Angeles Center
Wed 11:19:55 PM 35.7542 -112.9786 254° West 422 486 45,000  Level Los Angeles Center
Wed 11:20:55 PM 35.7222 -113.1153 256° West 422 486 45,000  Level Los Angeles Center
Wed 11:21:55 PM 35.6922 -113.2597 254° West 417 480 45,000  Level Los Angeles Center
Wed 11:22:55 PM 35.6619 -113.3886 254° West 423 487 45,000  Level Los Angeles Center
Wed 11:23:55 PM 35.6256 -113.5406 253° West 418 481 45,000  Level Los Angeles Center
Wed 11:24:55 PM 35.5908 -113.6769 251° West 418 481 45,000  Level Los Angeles Center
Wed 11:25:55 PM 35.5517 -113.8133 251° West 423 487 45,000  Level Los Angeles Center
Wed 11:26:55 PM 35.5144 -113.9472 251° West 423 487 45,000  Level Los Angeles Center
Wed 11:27:55 PM 35.4772 -114.0833 251° West 428 493 45,000  Level Los Angeles Center
Wed 11:28:55 PM 35.4417 -114.2092 252° West 421 484 45,000 -50 Level Los Angeles Center
Wed 11:29:55 PM 35.4061 -114.3450 251° West 411 473 44,900 -1,350 Descending Los Angeles Center
Wed 11:30:55 PM 35.3683 -114.4783 251° West 411 473 42,300 -2,150 Descending Los Angeles Center
Wed 11:31:55 PM 35.3325 -114.6089 251° West 411 473 40,600 -1,750 Descending Los Angeles Center
Wed 11:32:55 PM 35.2944 -114.7419 251° West 411 473 38,800 -1,800 Descending Los Angeles Center
Wed 11:33:55 PM 35.2564 -114.8775 251° West 411 473 37,000 -1,800 Descending Los Angeles Center
Wed 11:34:55 PM 35.2181 -115.0103 251° West 411 473 35,200 -1,450 Descending Los Angeles Center
Wed 11:35:55 PM 35.1814 -115.1403 250° West 411 473 34,100 -595 Descending Los Angeles Center
Wed 11:36:56 PM 35.1450 -115.2653 251° West 411 473 34,000 -50 Descending Los Angeles Center
Wed 11:37:55 PM 35.1061 -115.4053 250° West 431 496 34,000  Level Los Angeles Center
Wed 11:38:56 PM 35.0650 -115.5400 251° West 431 496 34,000  Level Los Angeles Center
Wed 11:39:56 PM 35.0261 -115.6747 251° West 431 496 34,000  Level Los Angeles Center
Wed 11:40:55 PM 34.9867 -115.8119 251° West 426 490 34,000 -655 Level Los Angeles Center
Wed 11:41:55 PM 34.9475 -115.9489 250° West 426 490 32,700 -1,850 Descending Los Angeles Center
Wed 11:42:55 PM 34.9078 -116.0833 251° West 426 490 30,300 -2,331 Descending Los Angeles Center
Wed 11:43:56 PM 34.8683 -116.2225 250° West 426 490 28,000 -2,300 Descending Los Angeles Center
Wed 11:44:55 PM 34.8264 -116.3592 253° West 426 490 25,700 -2,200 Descending Los Angeles Center
Wed 11:45:56 PM 34.7925 -116.4956 263° West 426 490 23,600 -2,050 Descending Los Angeles Center
Wed 11:46:55 PM 34.7794 -116.6294 263° West 416 479 21,600 -1,800 Descending Los Angeles Center
Wed 11:47:56 PM 34.7664 -116.7586 263° West 410 472 20,000 -800 Descending Los Angeles Center
Wed 11:48:55 PM 34.7531 -116.8872 263° West 404 465 20,000  Level Los Angeles Center
Wed 11:49:55 PM 34.7397 -117.0136 263° West 392 451 20,000  Level Los Angeles Center
Wed 11:50:56 PM 34.7261 -117.1447 263° West 387 445 20,000  Level Los Angeles Center
Wed 11:51:55 PM 34.7125 -117.2786 262° West 392 451 20,000  Level Los Angeles Center
Wed 11:52:55 PM 34.6964 -117.4225 264° West 397 457 20,000 -450 Level Los Angeles Center
Wed 11:53:55 PM 34.6844 -117.5561 262° West 397 457 19,100 -1,450 Descending Los Angeles Center
Wed 11:54:55 PM 34.6706 -117.6797 262° West 391 450 17,100 -2,000 Descending Los Angeles Center
Wed 11:55:55 PM 34.6564 -117.8006 259° West 379 436 15,100 -2,000 Descending Los Angeles Center
Wed 11:56:55 PM 34.6378 -117.9214 259° West 374 430 13,100 -1,550 Descending Los Angeles Center
Wed 11:57:55 PM 34.6194 -118.0372 259° West 369 425 12,000 -600 Descending Los Angeles Center
Wed 11:58:55 PM 34.6008 -118.1528 259° West 359 413 11,900 -1,200 Descending Los Angeles Center
Wed 11:59:55 PM 34.5844 -118.2583 258° West 333 383 9,600 -1,900 Descending Los Angeles Center
Thu 12:00:55 AM 34.5683 -118.3486 256° West 300 345 8,100 -750 Descending Los Angeles Center
Thu 12:01:55 AM 34.5497 -118.4392 247° West 279 321 8,100 -200 Level Los Angeles Center
Thu 12:02:55 AM 34.5211 -118.5214 184° South 272 313 7,700 -900 Descending Los Angeles Center
Thu 12:03:55 AM 34.4481 -118.5269 168° South 238 274 6,300 -1,350 Descending Los Angeles Center
Thu 12:04:55 AM 34.3733 -118.5072 171° South 254 292 5,000 -750 Descending Los Angeles Center
Thu 12:05:55 AM 34.3108 -118.4953 175° South 247 284 4,800 -900 Descending Los Angeles Center
Thu 12:06:55 AM 34.2525 -118.4886 175° South 221 254 3,200 -1,000 Descending Los Angeles Center
Thu 12:07:49 AM 34.2000 -118.4833 90° East 190 219 2,900 -750 Descending Southern California TRACON
Thu 12:08:55 AM 34.2000 -118.4333 90° East 141 162 1,700 -905 Descending Southern California TRACON
Thu 12:09:55 AM 34.2000 -118.3833 90° East 118 136 1,000 -700 Descending Southern California TRACON

Login

Don't have an account? Register now (free) for customized features, flight alerts, and more!